Terminal Aerodrome Forecast
Issued by NWS Shreveport, LA

Home | Current Version | Previous Version | Text Only | Print | Product List | Glossary On
Versions: 1 2 3 4 5 6 7 8 9 10 11 12 13 14
000
FTUS44 KSHV 140500
TAFMLU
TAF
KMLU 140521Z 1406/1506 17002KT P6SM FEW250
     FM140800 18002KT 4SM BR SCT250
      TEMPO 1410/1413 1SM BR
     FM141300 22007KT P6SM SCT050
     FM150100 20008KT P6SM SCT250=

USA.gov is the U.S. government's official web portal to all federal, state and local government web resources and services.